createdAt,value
2022-08-09T00:00:04.146Z,2.97
2022-08-09T00:02:42.903Z,2.83
2022-08-09T00:06:15.822Z,2.95
2022-08-09T00:08:10.101Z,3.05
2022-08-09T00:10:41.614Z,2.87
2022-08-09T00:13:17.125Z,2.55
2022-08-09T00:15:57.842Z,2.47
2022-08-09T00:18:31.474Z,2.65
2022-08-09T00:21:04.913Z,2.90
2022-08-09T00:23:55.883Z,3.00
2022-08-09T00:26:32.230Z,2.75
2022-08-09T00:29:02.190Z,3.03
2022-08-09T00:31:58.179Z,3.03
2022-08-09T00:34:19.183Z,3.47
2022-08-09T00:36:48.945Z,2.87
2022-08-09T00:40:12.362Z,3.92
2022-08-09T00:44:16.856Z,3.85
2022-08-09T00:44:53.803Z,4.18
2022-08-09T00:47:24.990Z,4.03
2022-08-09T00:49:54.834Z,4.05
2022-08-09T00:52:30.163Z,4.00
2022-08-09T00:55:00.117Z,3.45
2022-08-09T00:57:34.800Z,4.20
2022-08-09T01:00:21.926Z,3.42
2022-08-09T01:03:12.937Z,3.40
2022-08-09T01:05:57.655Z,3.55
2022-08-09T01:09:00.673Z,3.80
2022-08-09T01:11:53.071Z,3.80
2022-08-09T01:14:52.671Z,3.53
2022-08-09T01:17:47.187Z,3.60
2022-08-09T01:20:22.275Z,3.60
2022-08-09T01:24:00.747Z,3.45
2022-08-09T01:26:38.391Z,3.37
2022-08-09T01:29:06.641Z,3.90
2022-08-09T01:32:29.703Z,4.00
2022-08-09T01:34:23.580Z,3.45
2022-08-09T01:36:51.320Z,3.20
2022-08-09T01:39:20.241Z,3.40
2022-08-09T01:41:53.720Z,3.70
2022-08-09T01:44:28.253Z,3.47
2022-08-09T01:46:55.963Z,4.28
2022-08-09T01:49:24.307Z,4.20
2022-08-09T01:51:54.937Z,3.67
2022-08-09T01:54:32.806Z,3.90
2022-08-09T01:57:05.346Z,3.78
2022-08-09T01:59:51.059Z,3.50
2022-08-09T02:02:31.035Z,3.83
2022-08-09T02:05:05.310Z,3.78
2022-08-09T02:08:40.946Z,4.07
2022-08-09T02:10:29.800Z,4.37
2022-08-09T02:13:00.508Z,3.60
2022-08-09T02:15:36.175Z,4.37
2022-08-09T02:18:27.165Z,3.62
2022-08-09T02:21:00.271Z,3.72
2022-08-09T02:23:42.654Z,3.97
2022-08-09T02:26:26.894Z,3.80
2022-08-09T02:28:59.871Z,3.72
2022-08-09T02:31:31.262Z,4.43
2022-08-09T02:34:13.231Z,4.30
2022-08-09T02:36:44.662Z,4.15
2022-08-09T02:39:33.828Z,4.60
2022-08-09T02:42:06.757Z,4.43
2022-08-09T02:44:38.060Z,4.87
2022-08-09T02:47:10.278Z,5.35
2022-08-09T02:49:42.549Z,5.10
2022-08-09T02:52:14.556Z,5.18
2022-08-09T02:54:54.106Z,5.28
2022-08-09T02:57:24.048Z,5.05
2022-08-09T03:00:11.452Z,5.10
2022-08-09T03:02:58.074Z,5.00
2022-08-09T03:05:28.239Z,5.18
2022-08-09T03:07:56.137Z,4.95
2022-08-09T03:10:25.688Z,5.05
2022-08-09T03:12:54.959Z,4.53
2022-08-09T03:15:23.765Z,5.20
2022-08-09T03:17:58.794Z,4.97
2022-08-09T03:20:29.639Z,5.28
2022-08-09T03:22:58.323Z,5.45
2022-08-09T03:25:56.896Z,4.85
2022-08-09T03:28:22.410Z,4.93
2022-08-09T03:30:50.019Z,4.80
2022-08-09T03:33:19.540Z,5.32
2022-08-09T03:36:13.414Z,5.40
2022-08-09T03:38:44.734Z,5.70
2022-08-09T03:41:16.709Z,5.25
2022-08-09T03:44:04.055Z,5.55
2022-08-09T03:46:34.383Z,5.78
2022-08-09T03:49:08.336Z,5.53
2022-08-09T03:51:55.142Z,6.10
2022-08-09T03:54:31.737Z,5.80
2022-08-09T03:57:01.674Z,5.60
2022-08-09T03:59:43.263Z,5.72
2022-08-09T04:02:19.954Z,5.93
2022-08-09T04:04:58.581Z,7.50
2022-08-09T04:07:47.426Z,6.00
2022-08-09T04:10:20.338Z,6.35
2022-08-09T04:12:51.076Z,6.55
2022-08-09T04:15:40.591Z,6.60
2022-08-09T04:18:09.611Z,6.57
2022-08-09T04:20:44.131Z,7.62
2022-08-09T04:23:17.372Z,7.65
2022-08-09T04:25:51.662Z,7.95
2022-08-09T04:28:33.349Z,8.00
2022-08-09T04:31:07.855Z,8.57
2022-08-09T04:33:51.452Z,7.82
2022-08-09T04:36:26.221Z,8.18
2022-08-09T04:38:54.452Z,8.27
2022-08-09T04:41:23.763Z,7.25
2022-08-09T04:44:05.104Z,8.63
2022-08-09T04:46:37.872Z,8.25
2022-08-09T04:49:22.344Z,7.87
2022-08-09T04:52:09.533Z,7.70
2022-08-09T04:54:36.977Z,8.75
2022-08-09T04:57:04.233Z,9.50
2022-08-09T04:59:32.136Z,7.80
2022-08-09T05:02:02.878Z,7.97
2022-08-09T05:04:31.376Z,7.70
2022-08-09T05:06:59.047Z,8.05
2022-08-09T05:09:42.358Z,7.68
2022-08-09T05:12:16.359Z,6.95
2022-08-09T05:14:43.469Z,6.93
2022-08-09T05:18:36.646Z,7.60
2022-08-09T05:19:58.285Z,7.30
2022-08-09T05:22:33.464Z,6.70
2022-08-09T05:25:15.301Z,6.72
2022-08-09T05:27:46.714Z,6.90
2022-08-09T05:30:17.736Z,6.93
2022-08-09T05:32:50.944Z,7.12
2022-08-09T05:35:21.951Z,7.45
2022-08-09T05:37:50.513Z,7.45
2022-08-09T05:40:18.264Z,6.60
2022-08-09T05:42:46.194Z,5.50
2022-08-09T05:45:14.276Z,5.80
2022-08-09T05:47:52.181Z,4.82
2022-08-09T05:50:36.100Z,5.25
2022-08-09T05:53:21.402Z,5.15
2022-08-09T05:55:58.382Z,5.30
2022-08-09T05:58:25.522Z,5.22
2022-08-09T06:00:53.954Z,4.87
2022-08-09T06:03:21.365Z,4.10
2022-08-09T06:05:57.690Z,5.15
2022-08-09T06:08:33.358Z,5.18
2022-08-09T06:11:01.175Z,5.18
2022-08-09T06:13:33.944Z,4.97
2022-08-09T06:16:05.930Z,4.70
2022-08-09T06:18:34.021Z,5.95
2022-08-09T06:21:01.990Z,5.80
2022-08-09T06:23:57.936Z,5.85
2022-08-09T06:26:22.705Z,5.28
2022-08-09T06:29:00.746Z,5.47
2022-08-09T06:31:40.538Z,5.40
2022-08-09T06:34:26.362Z,5.60
2022-08-09T06:36:59.344Z,5.93
2022-08-09T06:39:49.033Z,7.68
2022-08-09T06:42:24.688Z,5.35
2022-08-09T06:44:58.795Z,5.72
2022-08-09T06:47:39.508Z,5.53
2022-08-09T06:50:13.814Z,6.82
2022-08-09T06:52:49.139Z,5.68
2022-08-09T06:55:24.131Z,6.40
2022-08-09T06:58:02.993Z,6.25
2022-08-09T07:00:48.977Z,6.28
2022-08-09T07:03:28.456Z,5.87
2022-08-09T07:06:03.771Z,5.85
2022-08-09T07:08:34.705Z,6.35
2022-08-09T07:11:05.197Z,5.90
2022-08-09T07:13:45.217Z,6.03
2022-08-09T07:16:41.707Z,6.05
2022-08-09T07:19:15.450Z,5.75
2022-08-09T07:21:55.910Z,5.40
2022-08-09T07:24:40.754Z,5.10
2022-08-09T07:27:33.651Z,5.37
2022-08-09T07:30:03.177Z,5.60
2022-08-09T07:32:33.108Z,5.15
2022-08-09T07:35:08.160Z,5.10
2022-08-09T07:37:44.555Z,5.00
2022-08-09T07:40:18.566Z,5.10
2022-08-09T07:42:50.246Z,5.18
2022-08-09T07:45:29.198Z,4.43
2022-08-09T07:48:05.345Z,4.50
2022-08-09T07:50:36.454Z,4.10
2022-08-09T07:53:05.269Z,4.82
2022-08-09T07:55:41.456Z,5.10
2022-08-09T07:58:26.054Z,4.80
2022-08-09T08:00:55.626Z,4.97
2022-08-09T08:03:26.836Z,5.37
2022-08-09T08:05:58.350Z,5.30
2022-08-09T08:09:00.668Z,4.82
2022-08-09T08:12:09.163Z,4.70
2022-08-09T08:14:01.009Z,5.03
2022-08-09T08:16:31.851Z,5.50
2022-08-09T08:19:02.861Z,5.55
2022-08-09T08:21:30.918Z,5.20
2022-08-09T08:24:00.992Z,5.07
2022-08-09T08:26:55.021Z,5.35
2022-08-09T08:29:27.816Z,5.25
2022-08-09T08:32:04.211Z,4.95
2022-08-09T08:34:34.535Z,4.60
2022-08-09T08:37:25.141Z,4.60
2022-08-09T08:43:17.825Z,4.57
2022-08-09T08:46:33.006Z,4.53
2022-08-09T08:49:22.633Z,4.18
2022-08-09T08:52:57.749Z,4.60
2022-08-09T08:55:36.144Z,4.70
2022-08-09T08:58:27.199Z,4.65
2022-08-09T09:01:20.728Z,4.43
2022-08-09T09:04:13.005Z,4.40
2022-08-09T09:06:43.599Z,3.87
2022-08-09T09:09:20.795Z,4.35
2022-08-09T09:12:02.523Z,4.53
2022-08-09T09:14:30.871Z,3.92
2022-08-09T09:16:58.480Z,3.97
2022-08-09T09:19:42.010Z,4.68
2022-08-09T09:22:15.950Z,4.35
2022-08-09T09:27:22.119Z,4.28
2022-08-09T09:30:23.803Z,4.12
2022-08-09T09:33:15.424Z,3.92
2022-08-09T09:36:01.329Z,3.50
2022-08-09T09:38:49.750Z,3.85
2022-08-09T09:41:27.993Z,3.90
2022-08-09T09:44:12.266Z,2.85
2022-08-09T09:46:46.116Z,3.78
2022-08-09T09:49:32.182Z,3.47
2022-08-09T09:52:16.712Z,3.85
2022-08-09T09:55:02.820Z,4.10
2022-08-09T09:58:04.023Z,3.65
2022-08-09T10:01:01.458Z,3.95
2022-08-09T10:03:38.096Z,3.85
2022-08-09T10:06:07.146Z,4.07
2022-08-09T10:08:54.216Z,4.20
2022-08-09T10:12:00.427Z,3.47
2022-08-09T10:14:27.234Z,3.42
2022-08-09T10:17:11.312Z,3.45
2022-08-09T10:19:45.806Z,2.58
2022-08-09T10:22:13.338Z,4.10
2022-08-09T10:24:41.116Z,3.45
2022-08-09T10:27:17.461Z,3.67
2022-08-09T10:30:43.877Z,3.40
2022-08-09T10:32:42.630Z,4.18
2022-08-09T10:35:10.548Z,2.83
2022-08-09T10:37:42.076Z,4.00
2022-08-09T10:40:12.110Z,4.20
2022-08-09T10:42:57.223Z,3.97
2022-08-09T10:45:24.923Z,3.50
2022-08-09T10:48:20.157Z,4.28
2022-08-09T10:51:13.733Z,3.40
2022-08-09T10:53:46.945Z,3.60
2022-08-09T10:56:24.542Z,3.83
2022-08-09T10:58:58.244Z,3.90
2022-08-09T11:03:11.548Z,3.40
2022-08-09T11:04:30.438Z,4.20
2022-08-09T11:06:58.107Z,3.58
2022-08-09T11:09:47.355Z,2.80
2022-08-09T11:12:17.745Z,4.00
2022-08-09T11:15:01.537Z,4.00
2022-08-09T11:17:31.924Z,4.28
2022-08-09T11:20:19.996Z,4.87
2022-08-09T11:22:55.307Z,3.90
2022-08-09T11:25:45.270Z,3.67
2022-08-09T11:28:54.339Z,3.80
2022-08-09T11:31:49.564Z,3.60
2022-08-09T11:34:28.289Z,4.15
2022-08-09T11:36:56.709Z,4.12
2022-08-09T11:39:24.908Z,4.30
2022-08-09T11:41:54.658Z,3.53
2022-08-09T11:44:45.612Z,3.55
2022-08-09T11:47:14.634Z,3.45
2022-08-09T11:50:53.985Z,4.20
2022-08-09T11:53:58.020Z,3.67
2022-08-09T11:55:52.332Z,4.22
2022-08-09T11:58:30.333Z,3.92
2022-08-09T12:01:01.657Z,3.55
2022-08-09T12:03:55.790Z,4.07
2022-08-09T12:06:26.542Z,4.15
2022-08-09T12:09:01.261Z,3.78
2022-08-09T12:11:29.095Z,4.30
2022-08-09T12:14:10.581Z,4.28
2022-08-09T12:16:44.033Z,3.97
2022-08-09T12:19:14.163Z,3.92
2022-08-09T12:21:48.645Z,4.20
2022-08-09T12:24:25.216Z,3.70
2022-08-09T12:29:10.730Z,3.67
2022-08-09T12:30:01.562Z,4.17
2022-08-09T12:32:44.344Z,3.90
2022-08-09T12:35:17.187Z,4.12
2022-08-09T12:37:51.856Z,3.78
2022-08-09T12:40:24.446Z,4.12
2022-08-09T12:42:52.797Z,4.35
2022-08-09T12:45:34.266Z,4.20
2022-08-09T12:48:20.202Z,4.40
2022-08-09T12:50:57.573Z,4.10
2022-08-09T12:53:41.158Z,3.78
2022-08-09T12:56:40.145Z,3.95
2022-08-09T12:59:09.121Z,3.47
2022-08-09T13:01:48.911Z,3.75
2022-08-09T13:04:36.519Z,3.33
2022-08-09T13:07:16.649Z,3.65
2022-08-09T13:09:55.367Z,3.10
2022-08-09T13:12:27.925Z,3.50
2022-08-09T13:15:08.674Z,3.33
2022-08-09T13:18:03.544Z,3.50
2022-08-09T13:22:33.059Z,3.87
2022-08-09T13:24:07.004Z,2.97
2022-08-09T13:26:36.497Z,3.45
2022-08-09T13:29:19.402Z,3.40
2022-08-09T13:32:16.784Z,3.65
2022-08-09T13:34:47.018Z,3.45
2022-08-09T13:37:24.657Z,3.45
2022-08-09T13:41:56.384Z,3.92
2022-08-09T13:42:53.073Z,3.85
2022-08-09T13:45:20.478Z,3.37
2022-08-09T13:47:50.050Z,3.03
2022-08-09T13:50:31.133Z,3.90
2022-08-09T13:52:58.933Z,3.95
2022-08-09T13:55:29.131Z,3.70
2022-08-09T13:57:58.335Z,3.58
2022-08-09T14:00:29.326Z,3.75
2022-08-09T14:03:03.761Z,4.40
2022-08-09T14:05:58.353Z,3.83
2022-08-09T14:08:32.398Z,3.70
2022-08-09T14:11:00.593Z,4.05
2022-08-09T14:14:24.822Z,3.30
2022-08-09T14:16:28.417Z,3.75
2022-08-09T14:18:57.179Z,4.32
2022-08-09T14:21:29.411Z,3.90
2022-08-09T14:23:57.654Z,3.53
2022-08-09T14:26:32.557Z,3.62
2022-08-09T14:29:03.778Z,3.67
2022-08-09T14:31:52.090Z,3.92
2022-08-09T14:34:27.357Z,4.15
2022-08-09T14:37:06.822Z,3.95
2022-08-09T14:39:47.211Z,3.58
2022-08-09T14:42:28.937Z,3.35
2022-08-09T14:46:55.886Z,3.50
2022-08-09T14:47:57.979Z,4.15
2022-08-09T14:50:35.144Z,3.20
2022-08-09T14:53:11.675Z,3.22
2022-08-09T14:55:47.840Z,3.42
2022-08-09T14:58:18.593Z,3.35
2022-08-09T15:00:48.478Z,4.15
2022-08-09T15:03:20.256Z,3.67
2022-08-09T15:05:52.252Z,3.70
2022-08-09T15:08:23.930Z,3.45
2022-08-09T15:11:00.457Z,3.37
2022-08-09T15:13:56.093Z,4.25
2022-08-09T15:16:20.102Z,3.80
2022-08-09T15:18:48.988Z,3.50
2022-08-09T15:22:00.756Z,3.40
2022-08-09T15:24:11.541Z,3.90
2022-08-09T15:26:45.434Z,3.28
2022-08-09T15:30:48.536Z,3.58
2022-08-09T15:32:05.615Z,3.62
2022-08-09T15:34:53.514Z,3.03
2022-08-09T15:37:57.294Z,3.58
2022-08-09T15:40:31.952Z,3.05
2022-08-09T15:45:29.815Z,3.50
2022-08-09T15:48:05.248Z,3.33
2022-08-09T15:50:39.121Z,3.58
2022-08-09T15:53:18.806Z,2.97
2022-08-09T15:56:21.710Z,3.30
2022-08-09T15:58:41.584Z,3.60
2022-08-09T16:01:09.145Z,3.60
2022-08-09T16:03:38.200Z,3.37
2022-08-09T16:06:29.283Z,3.50
2022-08-09T16:09:01.025Z,2.95
2022-08-09T16:11:30.927Z,3.40
2022-08-09T16:14:06.895Z,3.80
2022-08-09T16:16:37.335Z,3.67
2022-08-09T16:19:07.107Z,3.40
2022-08-09T16:21:36.174Z,3.90
2022-08-09T16:24:05.074Z,3.60
2022-08-09T16:26:37.062Z,3.00
2022-08-09T16:29:11.489Z,4.05
2022-08-09T16:32:18.668Z,3.37
2022-08-09T16:34:55.064Z,3.60
2022-08-09T16:37:50.681Z,4.18
2022-08-09T16:40:09.616Z,3.60
2022-08-09T16:42:37.727Z,3.75
2022-08-09T16:45:06.728Z,3.42
2022-08-09T16:48:42.613Z,3.72
2022-08-09T16:50:30.451Z,3.53
2022-08-09T16:53:00.567Z,3.60
2022-08-09T16:55:44.189Z,3.70
2022-08-09T16:58:16.645Z,3.37
2022-08-09T17:00:46.542Z,4.10
2022-08-09T17:03:21.856Z,3.55
2022-08-09T17:06:07.277Z,3.85
2022-08-09T17:09:01.771Z,3.95
2022-08-09T17:11:40.781Z,3.60
2022-08-09T17:14:26.404Z,3.83
2022-08-09T17:17:01.708Z,3.97
2022-08-09T17:20:05.979Z,4.22
2022-08-09T17:22:23.675Z,3.62
2022-08-09T17:27:23.860Z,3.80
2022-08-09T17:29:51.705Z,3.67
2022-08-09T17:32:20.346Z,3.62
2022-08-09T17:35:04.040Z,4.00
2022-08-09T17:38:11.942Z,4.18
2022-08-09T17:40:26.661Z,3.60
2022-08-09T17:42:59.588Z,3.90
2022-08-09T17:46:01.493Z,3.50
2022-08-09T17:48:18.102Z,3.33
2022-08-09T17:50:59.221Z,3.50
2022-08-09T17:53:42.867Z,3.90
2022-08-09T17:56:10.916Z,3.37
2022-08-09T17:58:38.234Z,3.95
2022-08-09T18:01:22.245Z,3.67
2022-08-09T18:03:52.568Z,3.83
2022-08-09T18:06:31.390Z,3.33
2022-08-09T18:09:05.563Z,3.80
2022-08-09T18:11:46.710Z,3.95
2022-08-09T18:14:15.761Z,3.90
2022-08-09T18:16:49.223Z,3.58
2022-08-09T18:20:54.434Z,3.90
2022-08-09T18:22:06.081Z,3.90
2022-08-09T18:24:40.824Z,3.80
2022-08-09T18:27:09.900Z,4.05
2022-08-09T18:30:42.913Z,4.22
2022-08-09T18:32:29.566Z,4.03
2022-08-09T18:34:57.518Z,3.92
2022-08-09T18:37:47.541Z,4.45
2022-08-09T18:40:12.467Z,4.53
2022-08-09T18:42:39.771Z,3.97
2022-08-09T18:45:11.183Z,4.30
2022-08-09T18:47:58.709Z,4.00
2022-08-09T18:50:26.031Z,3.67
2022-08-09T18:53:01.643Z,3.70
2022-08-09T18:55:56.309Z,3.78
2022-08-09T18:58:22.138Z,3.50
2022-08-09T19:01:00.411Z,3.30
2022-08-09T19:03:28.803Z,3.67
2022-08-09T19:06:03.466Z,3.00
2022-08-09T19:08:32.847Z,2.92
2022-08-09T19:10:59.995Z,3.20
2022-08-09T19:13:38.483Z,2.80
2022-08-09T19:16:18.253Z,2.00
2022-08-09T19:18:48.750Z,1.73
2022-08-09T19:21:21.536Z,2.10
2022-08-09T19:24:31.948Z,2.65
2022-08-09T19:26:52.174Z,1.70
2022-08-09T19:29:20.856Z,1.52
2022-08-09T19:31:51.321Z,1.77
2022-08-09T19:34:22.611Z,1.60
2022-08-09T19:36:52.994Z,1.37
2022-08-09T19:39:29.110Z,1.83
2022-08-09T19:42:09.229Z,1.50
2022-08-09T19:44:43.310Z,1.50
2022-08-09T19:47:11.107Z,1.30
2022-08-09T19:50:08.044Z,1.52
2022-08-09T19:52:27.482Z,1.30
2022-08-09T19:54:55.867Z,1.50
2022-08-09T19:57:26.101Z,2.10
2022-08-09T20:00:01.873Z,1.40
2022-08-09T20:04:18.235Z,1.42
2022-08-09T20:05:25.050Z,1.50
2022-08-09T20:08:00.255Z,1.55
2022-08-09T20:10:34.436Z,1.12
2022-08-09T20:13:03.019Z,1.30
2022-08-09T20:16:37.405Z,1.23
2022-08-09T20:18:19.735Z,1.33
2022-08-09T20:20:47.557Z,1.12
2022-08-09T20:23:19.613Z,1.58
2022-08-09T20:25:52.370Z,1.30
2022-08-09T20:28:34.300Z,1.42
2022-08-09T20:31:13.839Z,1.52
2022-08-09T20:33:44.333Z,1.35
2022-08-09T20:36:13.192Z,1.48
2022-08-09T20:41:32.542Z,1.30
2022-08-09T20:44:06.857Z,1.33
2022-08-09T20:46:43.038Z,1.03
2022-08-09T20:49:12.557Z,1.42
2022-08-09T20:51:41.417Z,1.45
2022-08-09T20:54:17.016Z,1.17
2022-08-09T20:56:49.650Z,1.33
2022-08-09T20:59:24.917Z,1.30
2022-08-09T21:02:18.531Z,1.00
2022-08-09T21:05:53.040Z,1.10
2022-08-09T21:07:38.627Z,1.33
2022-08-09T21:10:09.365Z,1.08
2022-08-09T21:12:38.987Z,1.10
2022-08-09T21:15:12.660Z,1.10
2022-08-09T21:18:11.796Z,1.10
2022-08-09T21:20:32.066Z,1.20
2022-08-09T21:23:00.518Z,1.25
2022-08-09T21:25:55.560Z,0.90
2022-08-09T21:28:34.771Z,0.90
2022-08-09T21:31:17.500Z,1.17
2022-08-09T21:33:52.676Z,1.15
2022-08-09T21:36:23.553Z,0.85
2022-08-09T21:38:58.011Z,1.02
2022-08-09T21:42:04.555Z,1.08
2022-08-09T21:44:34.673Z,1.48
2022-08-09T21:47:04.535Z,1.00
2022-08-09T21:49:39.531Z,0.90
2022-08-09T21:52:16.526Z,1.15
2022-08-09T21:55:03.512Z,0.85
2022-08-09T21:57:38.174Z,0.95
2022-08-09T22:00:25.470Z,1.00
2022-08-09T22:02:58.668Z,1.05
2022-08-09T22:05:36.726Z,1.42
2022-08-09T22:08:13.538Z,1.25
2022-08-09T22:11:49.671Z,1.00
2022-08-09T22:16:07.180Z,0.98
2022-08-09T22:18:37.220Z,1.12
2022-08-09T22:21:09.979Z,1.10
2022-08-09T22:23:59.084Z,0.90
2022-08-09T22:26:35.088Z,1.40
2022-08-09T22:29:09.407Z,1.30
2022-08-09T22:31:44.514Z,1.15
2022-08-09T22:34:25.652Z,1.02
2022-08-09T22:36:55.157Z,1.23
2022-08-09T22:39:58.364Z,1.20
2022-08-09T22:42:20.638Z,1.00
2022-08-09T22:44:49.798Z,1.20
2022-08-09T22:48:29.866Z,1.30
2022-08-09T22:50:23.892Z,1.27
2022-08-09T22:52:57.880Z,1.20
2022-08-09T22:55:33.745Z,1.30
2022-08-09T22:58:30.935Z,1.08
2022-08-09T23:01:05.601Z,1.00
2022-08-09T23:04:04.252Z,1.20
2022-08-09T23:06:35.385Z,1.37
2022-08-09T23:09:05.992Z,1.20
2022-08-09T23:11:33.323Z,1.10
2022-08-09T23:14:00.546Z,1.20
2022-08-09T23:16:27.993Z,1.30
2022-08-09T23:18:55.216Z,1.02
2022-08-09T23:21:25.288Z,1.02
2022-08-09T23:24:05.373Z,1.37
2022-08-09T23:26:38.275Z,1.17
2022-08-09T23:29:06.786Z,1.17
2022-08-09T23:31:34.294Z,1.30
2022-08-09T23:34:02.588Z,1.10
2022-08-09T23:36:32.502Z,1.00
2022-08-09T23:39:00.198Z,1.05
2022-08-09T23:41:29.487Z,1.20
2022-08-09T23:43:59.357Z,1.30
2022-08-09T23:46:30.497Z,1.55
2022-08-09T23:48:58.826Z,1.40
2022-08-09T23:51:27.046Z,1.30
2022-08-09T23:54:02.475Z,1.45
2022-08-09T23:56:52.885Z,1.30
2022-08-09T23:59:20.611Z,1.40
